Portada
METAR-TAF:

METAR-TAF

Aeroports :

Tuggurt, Algèria

latitud: 33-07N, longitud: 006-08E, altitud: 85 m

Observació

L'informe es va fer fa 29 minuts, a les 17:00 UTC
Vent 10 kt del Nord
Temperatura 30°C
Humitat 35%
Pressió 1007 hPa
Visibilitat 10 km o més
sense núvols per sota de 1500 mi sense presència de cumulonimbus.

METAR: DAUK 201700Z 01010KT CAVOK 30/13 Q1007

Hora: 18:29 (17:29 UTC)

Pronòstic

L'informe es va fer fa 3 hores i 29 minuts, a les 14:00 UTC
Pronòstic vàlid del 20 a les 15 UTC al 20 a les 24 UTC
Vent 8 kt del Nord/Nord-Est
Visibilitat 10 km o més
Núvols disperses a una alçada de 4000 ft
Probabilitat 30% :
Temporalment
l' 20 a les 15 UTC al 20 a les 18 UTC
Escasses núvols a una alçada de 3300 ft, Cumulus congestus.

TAF: DAUK 201400Z 2015/2024 02008KT 9999 SCT040 PROB30 TEMPO 2015/2018 FEW033TCU

Observacions i pronòstics meteorològics de més de 4000 aeroports (METAR i TAF).

Les estacions disponibles són els punts grocs i vermells al mapa.

Posi el ratolí al punt desitjat per veure el nom de l'estació.

Feu clic per veure les observacions i els pronòstics meteorològics.

Per canviar el mapa: feu clic els botons verds amb una creu de color negre per apropar; al botó verd amb un guió per allunyar la imatge; o en les fletxes verdes per a mapes adjacents.


METAR-TAF: